createdAt,value
2018-12-13T00:00:36.185Z,8.63
2018-12-13T00:03:03.216Z,8.70
2018-12-13T00:05:29.817Z,7.40
2018-12-13T00:07:56.495Z,7.43
2018-12-13T00:10:23.080Z,6.47
2018-12-13T00:12:49.647Z,6.37
2018-12-13T00:15:18.213Z,6.00
2018-12-13T00:17:44.797Z,6.30
2018-12-13T00:20:11.385Z,6.40
2018-12-13T00:22:37.962Z,6.00
2018-12-13T00:25:04.589Z,5.80
2018-12-13T00:27:31.188Z,5.23
2018-12-13T00:29:57.776Z,6.00
2018-12-13T00:32:24.347Z,6.30
2018-12-13T00:34:50.937Z,6.33
2018-12-13T00:37:17.505Z,6.17
2018-12-13T00:39:44.102Z,6.17
2018-12-13T00:42:10.674Z,6.60
2018-12-13T00:44:37.260Z,6.73
2018-12-13T00:47:03.833Z,6.50
2018-12-13T00:49:30.409Z,7.57
2018-12-13T00:51:57.025Z,7.50
2018-12-13T00:54:23.600Z,8.93
2018-12-13T00:56:50.188Z,8.00
2018-12-13T00:59:16.766Z,7.20
2018-12-13T01:01:43.344Z,6.90
2018-12-13T01:04:09.957Z,6.57
2018-12-13T01:06:36.569Z,6.60
2018-12-13T01:09:03.497Z,6.00
2018-12-13T01:11:30.076Z,6.00
2018-12-13T01:13:56.692Z,6.30
2018-12-13T01:16:23.293Z,6.13
2018-12-13T01:18:50.097Z,6.40
2018-12-13T01:21:20.542Z,6.83
2018-12-13T01:23:45.268Z,6.50
2018-12-13T01:26:11.848Z,6.53
2018-12-13T01:28:38.469Z,6.07
2018-12-13T01:31:05.040Z,6.23
2018-12-13T01:33:31.609Z,6.80
2018-12-13T01:35:58.204Z,6.57
2018-12-13T01:38:24.773Z,6.77
2018-12-13T01:40:51.660Z,6.27
2018-12-13T01:43:18.237Z,6.83
2018-12-13T01:45:44.813Z,6.43
2018-12-13T01:48:11.455Z,6.90
2018-12-13T01:50:38.048Z,6.83
2018-12-13T01:53:04.630Z,5.97
2018-12-13T01:55:31.336Z,6.63
2018-12-13T01:57:57.956Z,6.40
2018-12-13T02:00:24.560Z,6.70
2018-12-13T02:02:51.227Z,7.33
2018-12-13T02:05:17.805Z,6.80
2018-12-13T02:07:44.397Z,6.93
2018-12-13T02:10:11.028Z,7.17
2018-12-13T02:12:37.676Z,6.83
2018-12-13T02:15:04.501Z,6.90
2018-12-13T02:17:31.077Z,6.80
2018-12-13T02:19:57.705Z,6.70
2018-12-13T02:22:24.321Z,6.93
2018-12-13T02:24:50.957Z,6.30
2018-12-13T02:27:17.549Z,6.20
2018-12-13T02:29:44.181Z,6.53
2018-12-13T02:32:10.769Z,6.60
2018-12-13T02:34:37.501Z,6.33
2018-12-13T02:37:06.303Z,6.97
2018-12-13T02:39:33.464Z,6.70
2018-12-13T02:42:00.077Z,6.17
2018-12-13T02:44:26.725Z,6.60
2018-12-13T02:46:53.353Z,6.77
2018-12-13T02:49:20.301Z,6.23
2018-12-13T02:51:46.936Z,6.80
2018-12-13T02:54:13.570Z,6.70
2018-12-13T02:56:40.169Z,6.73
2018-12-13T02:59:07.164Z,6.40
2018-12-13T03:01:33.766Z,6.80
2018-12-13T03:04:00.427Z,6.47
2018-12-13T03:06:27.050Z,6.13
2018-12-13T03:08:53.628Z,6.87
2018-12-13T03:11:20.237Z,6.40
2018-12-13T03:13:46.872Z,6.57
2018-12-13T03:16:13.757Z,6.07
2018-12-13T03:18:40.370Z,6.23
2018-12-13T03:21:07.088Z,6.27
2018-12-13T03:23:33.690Z,6.67
2018-12-13T03:26:00.927Z,6.57
2018-12-13T03:28:27.618Z,6.20
2018-12-13T03:30:54.353Z,6.27
2018-12-13T03:33:20.973Z,6.40
2018-12-13T03:35:47.633Z,6.03
2018-12-13T03:38:14.238Z,6.33
2018-12-13T03:40:40.833Z,6.10
2018-12-13T03:43:07.431Z,6.30
2018-12-13T03:45:34.003Z,6.73
2018-12-13T03:48:00.668Z,6.47
2018-12-13T03:50:27.332Z,6.60
2018-12-13T03:52:53.910Z,7.37
2018-12-13T03:55:20.539Z,6.43
2018-12-13T03:57:47.187Z,7.03
2018-12-13T04:00:13.777Z,6.40
2018-12-13T04:02:40.365Z,6.60
2018-12-13T04:05:06.966Z,6.50
2018-12-13T04:07:33.565Z,6.13
2018-12-13T04:10:00.144Z,7.30
2018-12-13T04:12:26.722Z,6.40
2018-12-13T04:14:53.321Z,7.13
2018-12-13T04:17:19.904Z,5.97
2018-12-13T04:19:46.504Z,6.33
2018-12-13T04:22:13.077Z,6.40
2018-12-13T04:24:39.679Z,6.23
2018-12-13T04:27:06.325Z,5.97
2018-12-13T04:29:32.914Z,5.67
2018-12-13T04:31:59.537Z,6.10
2018-12-13T04:34:26.110Z,5.90
2018-12-13T04:36:52.702Z,5.90
2018-12-13T04:39:19.276Z,6.90
2018-12-13T04:41:45.886Z,6.87
2018-12-13T04:44:12.457Z,6.17
2018-12-13T04:46:39.112Z,6.47
2018-12-13T04:49:05.700Z,6.20
2018-12-13T04:51:32.286Z,6.07
2018-12-13T04:53:58.870Z,6.03
2018-12-13T04:56:25.469Z,6.83
2018-12-13T04:58:52.088Z,6.07
2018-12-13T05:01:18.688Z,6.37
2018-12-13T05:03:45.288Z,6.10
2018-12-13T05:06:11.904Z,5.90
2018-12-13T05:08:38.879Z,5.10
2018-12-13T05:11:05.428Z,5.47
2018-12-13T05:13:32.030Z,5.37
2018-12-13T05:15:58.605Z,5.10
2018-12-13T05:18:25.196Z,4.90
2018-12-13T05:20:51.799Z,5.50
2018-12-13T05:23:18.384Z,5.50
2018-12-13T05:25:44.961Z,5.07
2018-12-13T05:28:11.577Z,5.13
2018-12-13T05:30:38.145Z,5.17
2018-12-13T05:33:04.772Z,4.50
2018-12-13T05:35:31.376Z,4.50
2018-12-13T05:37:57.976Z,4.33
2018-12-13T05:40:24.592Z,4.87
2018-12-13T05:42:51.169Z,4.63
2018-12-13T05:45:17.758Z,4.93
2018-12-13T05:47:44.358Z,4.37
2018-12-13T05:50:10.974Z,5.23
2018-12-13T05:52:37.552Z,5.17
2018-12-13T05:55:04.166Z,5.27
2018-12-13T05:57:30.828Z,5.60
2018-12-13T05:59:57.447Z,5.67
2018-12-13T06:02:24.020Z,4.87
2018-12-13T06:04:50.641Z,5.27
2018-12-13T06:07:17.240Z,5.37
2018-12-13T06:09:43.830Z,5.10
2018-12-13T06:12:10.653Z,5.50
2018-12-13T06:14:37.224Z,5.90
2018-12-13T06:17:03.825Z,5.73
2018-12-13T06:19:30.417Z,6.10
2018-12-13T06:21:56.992Z,6.83
2018-12-13T06:24:23.568Z,6.43
2018-12-13T06:26:50.164Z,6.73
2018-12-13T06:29:16.770Z,5.70
2018-12-13T06:31:43.362Z,6.30
2018-12-13T06:34:09.937Z,6.10
2018-12-13T06:36:36.543Z,6.87
2018-12-13T06:39:04.773Z,6.40
2018-12-13T06:41:31.387Z,7.00
2018-12-13T06:43:58.036Z,6.13
2018-12-13T06:46:24.644Z,6.67
2018-12-13T06:48:51.241Z,6.07
2018-12-13T06:51:17.823Z,6.37
2018-12-13T06:53:44.494Z,5.60
2018-12-13T06:56:11.065Z,5.53
2018-12-13T06:58:37.649Z,5.73
2018-12-13T07:01:04.264Z,5.73
2018-12-13T07:03:30.861Z,5.77
2018-12-13T07:05:57.436Z,5.87
2018-12-13T07:08:24.017Z,5.53
2018-12-13T07:10:50.604Z,5.40
2018-12-13T07:13:17.181Z,7.50
2018-12-13T07:15:43.829Z,8.23
2018-12-13T07:18:10.413Z,12.20
2018-12-13T07:20:37.000Z,8.10
2018-12-13T07:23:03.620Z,6.53
2018-12-13T07:25:30.277Z,7.30
2018-12-13T07:27:56.869Z,6.70
2018-12-13T07:30:23.561Z,6.50
2018-12-13T07:32:50.138Z,7.23
2018-12-13T07:35:16.728Z,6.03
2018-12-13T07:37:43.360Z,7.23
2018-12-13T07:40:09.945Z,6.23
2018-12-13T07:42:36.540Z,5.70
2018-12-13T07:45:03.569Z,5.90
2018-12-13T07:47:30.213Z,6.43
2018-12-13T07:49:56.787Z,6.17
2018-12-13T07:52:23.400Z,6.20
2018-12-13T07:54:49.989Z,6.30
2018-12-13T07:57:16.592Z,6.13
2018-12-13T07:59:43.293Z,6.03
2018-12-13T08:02:09.898Z,5.77
2018-12-13T08:04:36.492Z,5.33
2018-12-13T08:07:03.081Z,5.50
2018-12-13T08:09:29.737Z,5.63
2018-12-13T08:11:56.333Z,5.60
2018-12-13T08:14:23.316Z,6.10
2018-12-13T08:16:49.892Z,6.03
2018-12-13T08:19:16.493Z,5.83
2018-12-13T08:21:43.105Z,5.23
2018-12-13T08:24:09.761Z,6.07
2018-12-13T08:26:36.398Z,5.83
2018-12-13T08:29:03.024Z,5.97
2018-12-13T08:31:29.676Z,6.10
2018-12-13T08:33:56.562Z,6.33
2018-12-13T08:36:23.235Z,5.60
2018-12-13T08:38:49.808Z,6.47
2018-12-13T08:41:16.389Z,6.80
2018-12-13T08:43:43.060Z,6.73
2018-12-13T08:46:10.317Z,6.93
2018-12-13T08:48:36.892Z,6.03
2018-12-13T08:51:03.509Z,5.97
2018-12-13T08:53:30.502Z,6.03
2018-12-13T08:55:57.085Z,6.13
2018-12-13T08:58:23.676Z,6.70
2018-12-13T09:00:50.736Z,5.73
2018-12-13T09:03:17.393Z,5.60
2018-12-13T09:05:43.969Z,5.73
2018-12-13T09:08:10.661Z,5.70
2018-12-13T09:10:37.257Z,5.40
2018-12-13T09:13:03.879Z,5.57
2018-12-13T09:15:30.457Z,5.23
2018-12-13T09:17:57.053Z,5.90
2018-12-13T09:20:23.644Z,5.90
2018-12-13T09:22:51.147Z,6.07
2018-12-13T09:25:17.727Z,5.93
2018-12-13T09:27:44.336Z,5.30
2018-12-13T09:30:10.932Z,5.70
2018-12-13T09:32:37.540Z,5.73
2018-12-13T09:35:04.941Z,6.63
2018-12-13T09:37:31.548Z,6.47
2018-12-13T09:39:58.651Z,5.80
2018-12-13T09:42:25.524Z,6.33
2018-12-13T09:44:52.157Z,5.30
2018-12-13T09:47:18.797Z,5.47
2018-12-13T09:49:45.372Z,5.40
2018-12-13T09:52:12.075Z,6.27
2018-12-13T09:54:38.713Z,6.07
2018-12-13T09:57:05.281Z,5.40
2018-12-13T09:59:31.893Z,5.27
2018-12-13T10:01:58.466Z,5.67
2018-12-13T10:04:25.061Z,5.43
2018-12-13T10:06:51.693Z,5.97
2018-12-13T10:09:18.435Z,5.50
2018-12-13T10:11:44.997Z,5.47
2018-12-13T10:14:11.601Z,6.53
2018-12-13T10:16:38.237Z,5.80
2018-12-13T10:19:04.872Z,6.07
2018-12-13T10:21:32.226Z,5.60
2018-12-13T10:23:58.845Z,5.80
2018-12-13T10:26:26.143Z,5.83
2018-12-13T10:28:52.741Z,6.10
2018-12-13T10:31:19.917Z,6.40
2018-12-13T10:33:46.643Z,5.97
2018-12-13T10:36:13.281Z,6.20
2018-12-13T10:38:39.913Z,6.00
2018-12-13T10:41:06.548Z,5.07
2018-12-13T10:43:33.190Z,5.60
2018-12-13T10:45:59.928Z,6.00
2018-12-13T10:48:26.563Z,5.87
2018-12-13T10:50:54.033Z,5.83
2018-12-13T10:53:20.657Z,5.97
2018-12-13T10:55:47.269Z,5.93
2018-12-13T10:58:13.952Z,5.60
2018-12-13T11:00:46.320Z,5.83
2018-12-13T11:03:19.852Z,6.47
2018-12-13T11:05:46.640Z,5.50
2018-12-13T11:08:13.430Z,5.73
2018-12-13T11:10:40.014Z,6.00
2018-12-13T11:13:06.589Z,6.67
2018-12-13T11:15:33.165Z,5.77
2018-12-13T11:18:00.034Z,5.80
2018-12-13T11:20:26.645Z,6.43
2018-12-13T11:22:53.245Z,5.80
2018-12-13T11:25:19.832Z,6.03
2018-12-13T11:27:52.278Z,5.30
2018-12-13T11:30:24.225Z,5.43
2018-12-13T11:32:50.821Z,5.17
2018-12-13T11:35:17.424Z,5.53
2018-12-13T11:37:44.021Z,5.10
2018-12-13T11:40:10.661Z,5.60
2018-12-13T11:42:37.228Z,5.97
2018-12-13T11:45:04.340Z,6.50
2018-12-13T11:47:30.913Z,5.80
2018-12-13T11:49:57.484Z,5.77
2018-12-13T11:52:24.097Z,6.10
2018-12-13T11:54:50.700Z,5.37
2018-12-13T11:57:17.284Z,6.10
2018-12-13T11:59:43.904Z,5.50
2018-12-13T12:02:10.482Z,5.43
2018-12-13T12:04:37.052Z,5.97
2018-12-13T12:07:03.664Z,5.90
2018-12-13T12:09:30.262Z,5.50
2018-12-13T12:11:56.856Z,4.57
2018-12-13T12:14:23.449Z,5.40
2018-12-13T12:16:50.079Z,5.33
2018-12-13T12:19:16.765Z,4.97
2018-12-13T12:21:43.352Z,4.57
2018-12-13T12:24:10.000Z,5.57
2018-12-13T12:26:36.596Z,5.00
2018-12-13T12:29:03.216Z,5.27
2018-12-13T12:31:29.810Z,6.03
2018-12-13T12:33:56.401Z,5.23
2018-12-13T12:36:23.005Z,5.50
2018-12-13T12:38:49.596Z,5.40
2018-12-13T12:41:16.169Z,5.63
2018-12-13T12:43:42.765Z,5.90
2018-12-13T12:46:09.412Z,5.47
2018-12-13T12:48:35.997Z,4.80
2018-12-13T12:51:02.680Z,5.40
2018-12-13T12:53:29.269Z,6.37
2018-12-13T12:55:56.140Z,4.87
2018-12-13T12:58:23.358Z,4.87
2018-12-13T13:00:50.149Z,5.33
2018-12-13T13:03:17.472Z,5.73
2018-12-13T13:05:44.045Z,5.40
2018-12-13T13:08:10.653Z,4.80
2018-12-13T13:10:37.427Z,4.87
2018-12-13T13:13:04.053Z,5.67
2018-12-13T13:15:30.653Z,4.70
2018-12-13T13:17:57.308Z,5.47
2018-12-13T13:20:23.915Z,4.90
2018-12-13T13:22:50.484Z,5.67
2018-12-13T13:25:17.056Z,5.60
2018-12-13T13:27:43.640Z,4.60
2018-12-13T13:30:10.208Z,5.03
2018-12-13T13:32:36.813Z,4.60
2018-12-13T13:35:03.424Z,4.60
2018-12-13T13:37:30.000Z,4.57
2018-12-13T13:39:56.572Z,4.53
2018-12-13T13:42:23.185Z,4.07
2018-12-13T13:44:51.701Z,5.00
2018-12-13T13:47:18.273Z,4.77
2018-12-13T13:49:44.860Z,4.60
2018-12-13T13:52:11.444Z,4.90
2018-12-13T13:54:38.133Z,4.73
2018-12-13T13:57:04.828Z,4.63
2018-12-13T13:59:31.401Z,4.13
2018-12-13T14:01:57.995Z,4.57
2018-12-13T14:04:24.600Z,4.70
2018-12-13T14:06:51.192Z,4.17
2018-12-13T14:09:17.783Z,4.00
2018-12-13T14:11:44.393Z,4.23
2018-12-13T14:14:11.072Z,4.70
2018-12-13T14:16:37.724Z,4.17
2018-12-13T14:19:04.312Z,4.60
2018-12-13T14:21:31.013Z,4.77
2018-12-13T14:23:57.600Z,4.60
2018-12-13T14:26:24.177Z,4.40
2018-12-13T14:28:50.770Z,5.20
2018-12-13T14:31:17.345Z,5.77
2018-12-13T14:33:43.968Z,5.53
2018-12-13T14:36:10.541Z,5.30
2018-12-13T14:38:37.137Z,5.77
2018-12-13T14:41:03.748Z,5.67
2018-12-13T14:43:30.354Z,4.87
2018-12-13T14:45:56.945Z,5.33
2018-12-13T14:48:23.540Z,5.10
2018-12-13T14:50:50.113Z,4.80
2018-12-13T14:53:16.736Z,4.57
2018-12-13T14:55:43.321Z,3.90
2018-12-13T14:58:09.893Z,4.97
2018-12-13T15:00:36.536Z,5.00
2018-12-13T15:03:03.128Z,4.73
2018-12-13T15:05:29.753Z,5.23
2018-12-13T15:07:56.324Z,5.43
2018-12-13T15:10:22.929Z,5.53
2018-12-13T15:12:49.516Z,5.40
2018-12-13T15:15:16.092Z,4.93
2018-12-13T15:17:42.679Z,4.50
2018-12-13T15:20:09.300Z,4.90
2018-12-13T15:22:35.896Z,4.50
2018-12-13T15:25:02.496Z,4.33
2018-12-13T15:27:29.969Z,4.40
2018-12-13T15:29:56.564Z,4.50
2018-12-13T15:32:23.162Z,4.77
2018-12-13T15:34:49.732Z,4.40
2018-12-13T15:37:16.328Z,4.70
2018-12-13T15:39:42.981Z,4.67
2018-12-13T15:42:09.580Z,4.47
2018-12-13T15:44:36.215Z,4.27
2018-12-13T15:47:02.820Z,3.83
2018-12-13T15:49:29.534Z,4.37
2018-12-13T15:51:56.111Z,4.40
2018-12-13T15:54:22.704Z,3.97
2018-12-13T15:56:49.277Z,4.57
2018-12-13T15:59:15.975Z,4.23
2018-12-13T16:01:42.572Z,3.73
2018-12-13T16:04:09.153Z,4.03
2018-12-13T16:06:35.735Z,3.93
2018-12-13T16:09:02.376Z,4.10
2018-12-13T16:11:28.945Z,3.90
2018-12-13T16:13:55.535Z,4.03
2018-12-13T16:16:22.212Z,4.50
2018-12-13T16:18:48.808Z,4.23
2018-12-13T16:21:15.384Z,4.70
2018-12-13T16:23:41.993Z,3.97
2018-12-13T16:26:08.566Z,4.30
2018-12-13T16:28:35.249Z,4.27
2018-12-13T16:31:01.820Z,4.20
2018-12-13T16:33:28.395Z,4.33
2018-12-13T16:35:54.988Z,4.70
2018-12-13T16:38:21.556Z,4.20
2018-12-13T16:40:48.161Z,4.03
2018-12-13T16:43:14.735Z,4.70
2018-12-13T16:45:41.329Z,4.13
2018-12-13T16:48:07.937Z,4.30
2018-12-13T16:50:34.534Z,4.10
2018-12-13T16:53:01.137Z,4.27
2018-12-13T16:55:27.737Z,4.07
2018-12-13T16:57:54.313Z,3.70
2018-12-13T17:00:20.981Z,4.10
2018-12-13T17:02:47.557Z,4.27
2018-12-13T17:05:14.133Z,5.17
2018-12-13T17:07:40.761Z,4.93
2018-12-13T17:10:07.789Z,4.73
2018-12-13T17:12:34.360Z,5.03
2018-12-13T17:15:00.974Z,4.50
2018-12-13T17:17:27.551Z,4.37
2018-12-13T17:19:54.117Z,3.83
2018-12-13T17:22:20.753Z,4.70
2018-12-13T17:24:47.316Z,4.40
2018-12-13T17:27:13.894Z,4.37
2018-12-13T17:29:40.484Z,4.83
2018-12-13T17:32:07.108Z,5.50
2018-12-13T17:34:33.697Z,5.47
2018-12-13T17:37:00.273Z,4.83
2018-12-13T17:39:26.900Z,5.60
2018-12-13T17:41:53.512Z,5.80
2018-12-13T17:44:20.096Z,5.77
2018-12-13T17:46:46.670Z,5.43
2018-12-13T17:49:13.268Z,5.63
2018-12-13T17:51:39.832Z,5.40
2018-12-13T17:54:06.441Z,5.20
2018-12-13T17:56:33.284Z,5.30
2018-12-13T17:58:59.885Z,6.00
2018-12-13T18:01:26.485Z,6.17
2018-12-13T18:03:53.183Z,6.37
2018-12-13T18:06:19.761Z,5.20
2018-12-13T18:08:46.352Z,5.30
2018-12-13T18:11:12.957Z,5.80
2018-12-13T18:13:39.533Z,5.47
2018-12-13T18:16:06.135Z,5.83
2018-12-13T18:18:32.724Z,5.37
2018-12-13T18:20:59.332Z,5.57
2018-12-13T18:23:25.944Z,7.00
2018-12-13T18:25:52.543Z,6.00
2018-12-13T18:28:19.112Z,5.70
2018-12-13T18:30:45.711Z,5.60
2018-12-13T18:33:12.325Z,5.20
2018-12-13T18:35:38.928Z,5.90
2018-12-13T18:38:05.536Z,6.83
2018-12-13T18:40:35.593Z,6.77
2018-12-13T18:43:00.680Z,6.10
2018-12-13T18:45:29.200Z,5.63
2018-12-13T18:47:55.793Z,6.00
2018-12-13T18:50:22.369Z,5.57
2018-12-13T18:52:48.980Z,5.47
2018-12-13T18:55:15.548Z,5.40
2018-12-13T18:57:42.152Z,5.73
2018-12-13T19:00:08.781Z,5.50
2018-12-13T19:02:35.357Z,5.20
2018-12-13T19:05:01.976Z,5.00
2018-12-13T19:07:28.548Z,5.20
2018-12-13T19:09:55.141Z,5.00
2018-12-13T19:12:21.717Z,5.27
2018-12-13T19:14:48.312Z,5.10
2018-12-13T19:17:14.912Z,5.30
2018-12-13T19:19:41.611Z,5.20
2018-12-13T19:22:08.196Z,5.80
2018-12-13T19:24:34.788Z,5.87
2018-12-13T19:27:01.358Z,5.77
2018-12-13T19:29:27.980Z,5.50
2018-12-13T19:31:54.540Z,5.43
2018-12-13T19:34:21.128Z,5.30
2018-12-13T19:36:47.729Z,5.23
2018-12-13T19:39:14.324Z,4.90
2018-12-13T19:41:40.901Z,5.77
2018-12-13T19:44:07.497Z,5.47
2018-12-13T19:46:34.112Z,5.37
2018-12-13T19:49:00.873Z,6.17
2018-12-13T19:51:27.448Z,5.83
2018-12-13T19:53:54.018Z,6.07
2018-12-13T19:56:20.682Z,5.60
2018-12-13T19:58:47.265Z,6.13
2018-12-13T20:01:13.884Z,5.73
2018-12-13T20:03:40.461Z,5.40
2018-12-13T20:06:07.032Z,5.43
2018-12-13T20:08:33.631Z,5.40
2018-12-13T20:11:00.312Z,5.47
2018-12-13T20:13:26.982Z,5.70
2018-12-13T20:15:53.577Z,5.50
2018-12-13T20:18:20.249Z,6.07
2018-12-13T20:20:46.841Z,6.97
2018-12-13T20:23:13.412Z,6.67
2018-12-13T20:25:40.009Z,6.87
2018-12-13T20:28:06.580Z,7.40
2018-12-13T20:30:33.170Z,5.30
2018-12-13T20:32:59.736Z,5.93
2018-12-13T20:35:26.639Z,6.43
2018-12-13T20:37:53.209Z,4.77
2018-12-13T20:40:19.806Z,6.07
2018-12-13T20:42:46.393Z,5.50
2018-12-13T20:45:12.987Z,5.70
2018-12-13T20:47:39.649Z,5.83
2018-12-13T20:50:06.286Z,6.10
2018-12-13T20:52:32.917Z,5.73
2018-12-13T20:54:59.532Z,5.40
2018-12-13T20:57:26.140Z,5.60
2018-12-13T20:59:52.829Z,5.90
2018-12-13T21:02:19.473Z,5.53
2018-12-13T21:04:46.104Z,5.93
2018-12-13T21:07:18.355Z,5.37
2018-12-13T21:09:46.041Z,5.43
2018-12-13T21:12:12.626Z,5.80
2018-12-13T21:14:39.397Z,5.57
2018-12-13T21:17:06.156Z,5.50
2018-12-13T21:19:32.725Z,5.40
2018-12-13T21:21:59.416Z,5.90
2018-12-13T21:24:26.238Z,6.00
2018-12-13T21:26:52.809Z,5.50
2018-12-13T21:29:19.393Z,6.00
2018-12-13T21:31:45.993Z,5.43
2018-12-13T21:34:12.598Z,5.93
2018-12-13T21:36:39.258Z,6.13
2018-12-13T21:39:06.104Z,6.07
2018-12-13T21:41:32.699Z,5.70
2018-12-13T21:43:59.297Z,5.93
2018-12-13T21:46:25.928Z,5.53
2018-12-13T21:48:52.529Z,5.87
2018-12-13T21:51:19.139Z,6.73
2018-12-13T21:53:45.773Z,7.37
2018-12-13T21:56:12.348Z,6.80
2018-12-13T21:58:38.928Z,7.03
2018-12-13T22:01:05.516Z,6.47
2018-12-13T22:03:32.121Z,6.63
2018-12-13T22:05:58.693Z,7.17
2018-12-13T22:08:25.296Z,7.07
2018-12-13T22:10:51.960Z,5.30
2018-12-13T22:13:18.533Z,5.60
2018-12-13T22:15:45.128Z,5.83
2018-12-13T22:18:11.718Z,5.40
2018-12-13T22:20:38.294Z,6.07
2018-12-13T22:23:04.909Z,5.90
2018-12-13T22:25:31.486Z,5.57
2018-12-13T22:27:58.080Z,5.60
2018-12-13T22:30:24.659Z,5.20
2018-12-13T22:32:51.260Z,5.50
2018-12-13T22:35:17.832Z,5.00
2018-12-13T22:37:44.409Z,5.73
2018-12-13T22:40:11.024Z,5.70
2018-12-13T22:42:37.601Z,5.57
2018-12-13T22:45:04.721Z,5.70
2018-12-13T22:47:31.321Z,6.07
2018-12-13T22:49:57.916Z,5.70
2018-12-13T22:52:24.503Z,6.33
2018-12-13T22:54:51.088Z,5.50
2018-12-13T22:57:17.681Z,5.83
2018-12-13T22:59:44.261Z,5.80
2018-12-13T23:02:10.880Z,5.27
2018-12-13T23:04:37.471Z,5.70
2018-12-13T23:07:04.045Z,5.80
2018-12-13T23:09:30.652Z,6.00
2018-12-13T23:11:57.260Z,5.70
2018-12-13T23:14:23.853Z,5.13
2018-12-13T23:16:50.445Z,6.57
2018-12-13T23:19:17.030Z,6.03
2018-12-13T23:21:43.621Z,5.10
2018-12-13T23:24:10.199Z,5.23
2018-12-13T23:26:36.829Z,5.30
2018-12-13T23:29:03.429Z,4.50
2018-12-13T23:31:30.087Z,5.00
2018-12-13T23:33:56.704Z,5.33
2018-12-13T23:36:23.325Z,4.90
2018-12-13T23:38:49.901Z,5.00
2018-12-13T23:41:16.484Z,5.00
2018-12-13T23:43:43.085Z,5.37
2018-12-13T23:46:09.672Z,4.83
2018-12-13T23:48:36.249Z,5.73
2018-12-13T23:51:02.840Z,5.17
2018-12-13T23:53:29.564Z,4.90
2018-12-13T23:55:56.282Z,5.03
2018-12-13T23:58:23.105Z,4.80
